Palmer, Arkansas
Current Conditions -  °F | °C
As of 1:55 AM on Saturday 20 Dec 2014 (Local Time) from KSGT Reporting Station
Overcast Overcast  
Wind Chill:   Ceiling: 6000
Heat Index:   Visibility: NA
Dew Point:   Wind: 7mph
Humidity: 87%   Direction: 20°NNE
Pressure: 30.23"   Gusts: NA
Location:  34.5919°N, 91.1409°W
Report Text: KSGT 200755Z 02006KT OVC060 04/02 A3023 RMK AO1
Loading
Personal Weather Stations






























Interactive Weather Map New forecast layout! Learn more

10-Day Weather Forecast

Advertisements
Track Severe Weather on mobile